National Weather Service United States Department of Commerce
Click Here for Latest Airport Weather Warnings
 
Latest Huntsville TAF


000
FTUS44 KHUN 251120
TAFHSV
TAF
KHSV 251120Z 2512/2612 01006KT P6SM FEW200
FM260700 04007KT P6SM VCSH OVC080
FM261100 08006KT 6SM SHRA BR OVC017=

Latest Muscle Shoals TAF


189
FTUS44 KHUN 251120
TAFMSL
TAF
KMSL 251120Z 2512/2612 02008KT P6SM SKC
FM260500 05008KT P6SM VCSH OVC070
FM260900 07007KT 6SM SHRA BR OVC014=


Back to Main Huntsville Weather Forecast Office Page